Time;durP1;ratioP1;P1;durP2;ratioP2;P2;SDS_P1;SDS_P2;PMS_P1;PMS_P2;Temp;Humidity;BMP_temperature;BMP_pressure;BME280_temperature;BME280_humidity;BME280_pressure;Samples;Min_cycle;Max_cycle;Signal;HPM_P1;HPM_P2
2023/08/15 00:00:15;;;;;;;72.18;68.53;;;;;;;;;;5073736;28;20029;-65
2023/08/15 00:02:40;;;;;;;64.05;60.78;;;;;;;;;;5078501;28;20028;-67
2023/08/15 00:05:06;;;;;;;53.65;50.95;;;;;;;;;;5073423;28;20162;-66
2023/08/15 00:07:31;;;;;;;79.25;75.30;;;;;;;;;;5072969;28;20363;-67
2023/08/15 00:09:56;;;;;;;95.72;90.97;;;;;;;;;;5074714;28;20040;-66
2023/08/15 00:12:22;;;;;;;94.90;90.13;;;;;;;;;;5073121;28;20031;-66
2023/08/15 00:14:47;;;;;;;89.43;85.00;;;;;;;;;;5074797;28;20040;-67
2023/08/15 00:17:13;;;;;;;78.38;74.45;;;;;;;;;;5076240;28;20051;-67
2023/08/15 00:19:39;;;;;;;68.78;65.30;;;;;;;;;;5073715;28;20032;-66
2023/08/15 00:22:04;;;;;;;59.15;56.10;;;;;;;;;;5073790;28;20066;-66
2023/08/15 00:24:30;;;;;;;60.58;57.55;;;;;;;;;;5076452;28;20032;-66
2023/08/15 00:26:55;;;;;;;52.70;50.05;;;;;;;;;;5075746;28;20658;-67
2023/08/15 00:29:20;;;;;;;51.83;49.17;;;;;;;;;;5075629;28;20043;-67
2023/08/15 00:31:46;;;;;;;49.13;46.63;;;;;;;;;;5073802;28;20028;-67
2023/08/15 00:34:11;;;;;;;54.13;51.35;;;;;;;;;;5075072;28;20044;-67
2023/08/15 00:36:37;;;;;;;45.58;43.25;;;;;;;;;;5073810;28;20032;-66
2023/08/15 00:39:02;;;;;;;44.95;42.63;;;;;;;;;;5074720;28;20546;-66
2023/08/15 00:41:29;;;;;;;45.05;42.72;;;;;;;;;;5071787;28;20033;-65
2023/08/15 00:43:56;;;;;;;50.53;46.70;;;;;;;;;;5075352;28;20024;-66
2023/08/15 00:46:22;;;;;;;46.08;43.70;;;;;;;;;;5074903;28;20423;-67
2023/08/15 00:48:48;;;;;;;49.70;46.92;;;;;;;;;;5074068;28;20042;-67
2023/08/15 00:51:13;;;;;;;45.22;42.88;;;;;;;;;;5074997;28;20040;-67
2023/08/15 00:53:39;;;;;;;49.30;46.75;;;;;;;;;;5077263;28;20036;-67
2023/08/15 00:56:05;;;;;;;47.78;45.28;;;;;;;;;;5074449;28;20036;-67
2023/08/15 00:58:31;;;;;;;46.75;44.35;;;;;;;;;;5070457;28;20474;-66
2023/08/15 01:00:56;;;;;;;51.15;48.50;;;;;;;;;;5072742;28;20119;-65
2023/08/15 01:03:22;;;;;;;53.10;50.35;;;;;;;;;;5073413;28;20056;-65
2023/08/15 01:05:47;;;;;;;53.35;50.47;;;;;;;;;;5072303;28;20102;-65
2023/08/15 01:08:13;;;;;;;48.13;45.65;;;;;;;;;;5065232;28;20032;-65
2023/08/15 01:10:39;;;;;;;51.13;48.50;;;;;;;;;;5075799;28;20127;-67
2023/08/15 01:13:13;;;;;;;49.65;46.90;;;;;;;;;;5076877;28;20781;-67
2023/08/15 01:15:45;;;;;;;46.15;43.72;;;;;;;;;;5074815;28;20097;-67
2023/08/15 01:18:15;;;;;;;48.55;45.63;;;;;;;;;;5080585;28;20120;-67
2023/08/15 01:20:41;;;;;;;48.42;45.67;;;;;;;;;;5078467;28;20436;-66
2023/08/15 01:23:08;;;;;;;50.83;48.22;;;;;;;;;;5077029;28;20416;-65
2023/08/15 01:25:42;;;;;;;52.92;50.17;;;;;;;;;;5078849;28;20036;-66
2023/08/15 01:28:12;;;;;;;50.20;47.63;;;;;;;;;;5075352;28;20054;-67
2023/08/15 01:30:43;;;;;;;50.00;47.30;;;;;;;;;;5077410;28;20029;-66
2023/08/15 01:33:20;;;;;;;50.88;48.22;;;;;;;;;;5078650;28;20028;-67
2023/08/15 01:35:50;;;;;;;51.65;49.00;;;;;;;;;;5076291;28;20040;-67
2023/08/15 01:38:21;;;;;;;;;;;;;;;;;;5079011;28;20041;-67
2023/08/15 01:40:48;;;;;;;;;;;;;;;;;;5079041;28;20349;-67
2023/08/15 01:43:15;;;;;;;39.45;37.35;;;;;;;;;;5076029;28;19920;-66
2023/08/15 01:45:40;;;;;;;48.08;45.50;;;;;;;;;;5073732;28;20473;-67
2023/08/15 01:48:06;;;;;;;50.97;48.33;;;;;;;;;;5076197;28;20035;-67
2023/08/15 01:50:31;;;;;;;52.85;50.13;;;;;;;;;;5077938;28;20347;-64
2023/08/15 01:52:57;;;;;;;57.22;54.10;;;;;;;;;;5077437;28;20332;-66
2023/08/15 01:55:22;;;;;;;65.70;62.42;;;;;;;;;;5078216;28;20291;-65
2023/08/15 01:57:47;;;;;;;47.85;45.40;;;;;;;;;;5077712;28;20640;-66
2023/08/15 02:00:13;;;;;;;51.63;48.88;;;;;;;;;;5077426;28;20061;-66
2023/08/15 02:02:38;;;;;;;47.63;45.17;;;;;;;;;;5077814;28;20047;-66
2023/08/15 02:05:04;;;;;;;45.95;43.55;;;;;;;;;;5077375;28;20052;-66
2023/08/15 02:07:30;;;;;;;47.78;45.30;;;;;;;;;;5079658;28;20032;-66
2023/08/15 02:09:55;;;;;;;53.13;50.38;;;;;;;;;;5079185;28;20028;-66
2023/08/15 02:12:20;;;;;;;54.08;51.30;;;;;;;;;;5078598;28;20107;-66
2023/08/15 02:14:46;;;;;;;52.00;49.33;;;;;;;;;;5076239;28;20086;-66
2023/08/15 02:17:11;;;;;;;53.25;50.55;;;;;;;;;;5079277;28;20037;-66
2023/08/15 02:19:36;;;;;;;52.08;49.35;;;;;;;;;;5073084;28;20082;-67
2023/08/15 02:22:02;;;;;;;57.70;54.80;;;;;;;;;;5075342;28;20044;-67
2023/08/15 02:24:28;;;;;;;59.20;55.92;;;;;;;;;;5075036;28;20041;-67
2023/08/15 02:26:53;;;;;;;55.67;52.85;;;;;;;;;;5075038;28;20466;-67
2023/08/15 02:29:19;;;;;;;57.13;54.10;;;;;;;;;;5075941;28;20105;-67
2023/08/15 02:31:46;;;;;;;56.50;53.17;;;;;;;;;;5074946;28;20112;-67
2023/08/15 02:34:12;;;;;;;53.97;51.22;;;;;;;;;;5077619;28;20028;-67
2023/08/15 02:36:37;;;;;;;61.97;58.85;;;;;;;;;;5073821;28;20147;-66
2023/08/15 02:39:03;;;;;;;61.22;58.08;;;;;;;;;;5077552;28;20040;-66
2023/08/15 02:41:29;;;;;;;70.25;66.70;;;;;;;;;;5078532;28;20485;-66
2023/08/15 02:43:54;;;;;;;69.63;66.07;;;;;;;;;;5074242;28;20497;-67
2023/08/15 02:46:19;;;;;;;76.60;72.60;;;;;;;;;;5078397;28;20086;-67
2023/08/15 02:48:45;;;;;;;80.03;75.97;;;;;;;;;;5078052;28;20046;-67
2023/08/15 02:51:10;;;;;;;68.85;64.57;;;;;;;;;;5079657;28;20477;-63
2023/08/15 02:53:36;;;;;;;68.13;64.68;;;;;;;;;;5076140;28;20663;-62
2023/08/15 02:56:01;;;;;;;74.18;70.40;;;;;;;;;;5074600;28;20066;-62
2023/08/15 02:58:27;;;;;;;82.18;76.47;;;;;;;;;;5074026;28;20470;-62
2023/08/15 03:00:52;;;;;;;78.88;74.90;;;;;;;;;;5076154;28;20054;-62
2023/08/15 03:03:17;;;;;;;91.60;86.95;;;;;;;;;;5077862;28;20078;-62
2023/08/15 03:05:43;;;;;;;92.85;88.15;;;;;;;;;;5070100;28;20097;-62
2023/08/15 03:08:08;;;;;;;90.68;86.03;;;;;;;;;;5070847;28;20295;-65
2023/08/15 03:10:36;;;;;;;93.53;88.57;;;;;;;;;;5075476;28;20040;-62
2023/08/15 03:13:01;;;;;;;78.55;74.55;;;;;;;;;;5074078;28;20097;-62
2023/08/15 03:15:27;;;;;;;87.22;82.85;;;;;;;;;;5074093;28;20047;-62
2023/08/15 03:17:52;;;;;;;98.30;93.32;;;;;;;;;;5073699;28;20020;-62
2023/08/15 03:20:18;;;;;;;86.07;81.63;;;;;;;;;;5074358;28;21398;-62
2023/08/15 03:22:43;;;;;;;95.88;90.95;;;;;;;;;;5073886;28;20505;-61
2023/08/15 03:25:09;;;;;;;94.20;89.38;;;;;;;;;;5077982;28;20036;-62
2023/08/15 03:27:34;;;;;;;104.65;99.38;;;;;;;;;;5074528;28;20127;-62
2023/08/15 03:30:00;;;;;;;105.68;100.13;;;;;;;;;;5073507;28;20031;-61
2023/08/15 03:32:25;;;;;;;96.90;91.68;;;;;;;;;;5077908;28;20040;-62
2023/08/15 03:34:50;;;;;;;104.95;99.55;;;;;;;;;;5075285;28;20060;-61
2023/08/15 03:37:16;;;;;;;100.00;94.88;;;;;;;;;;5068559;28;20037;-61
2023/08/15 03:39:41;;;;;;;105.53;100.15;;;;;;;;;;5074488;28;20097;-61
2023/08/15 03:42:06;;;;;;;105.10;99.75;;;;;;;;;;5075156;28;20963;-61
2023/08/15 03:44:32;;;;;;;103.18;97.95;;;;;;;;;;5077262;28;20028;-64
2023/08/15 03:46:57;;;;;;;102.65;97.30;;;;;;;;;;5074960;28;20413;-66
2023/08/15 03:49:22;;;;;;;118.38;112.30;;;;;;;;;;5078943;28;20487;-64
2023/08/15 03:51:48;;;;;;;90.05;85.38;;;;;;;;;;5079389;28;20054;-63
2023/08/15 03:54:13;;;;;;;107.32;101.65;;;;;;;;;;5077677;28;20044;-64
2023/08/15 03:56:39;;;;;;;114.85;108.88;;;;;;;;;;5075643;28;20361;-64
2023/08/15 03:59:04;;;;;;;85.93;81.32;;;;;;;;;;5073412;28;20481;-64
2023/08/15 04:01:29;;;;;;;54.97;52.10;;;;;;;;;;5072508;28;20032;-64
2023/08/15 04:03:56;;;;;;;53.40;50.58;;;;;;;;;;5076180;28;20090;-65
2023/08/15 04:06:22;;;;;;;53.03;50.22;;;;;;;;;;5077490;28;20106;-65
2023/08/15 04:08:47;;;;;;;44.10;41.80;;;;;;;;;;5073535;28;20112;-65
2023/08/15 04:11:12;;;;;;;42.97;40.25;;;;;;;;;;5076355;28;20086;-64
2023/08/15 04:13:38;;;;;;;48.55;46.03;;;;;;;;;;5074851;28;20093;-65
2023/08/15 04:16:04;;;;;;;46.15;43.70;;;;;;;;;;5074785;28;20071;-65
2023/08/15 04:18:29;;;;;;;75.57;71.75;;;;;;;;;;5073334;28;20127;-65
2023/08/15 04:20:55;;;;;;;63.72;60.45;;;;;;;;;;5073277;28;20426;-65
2023/08/15 04:23:20;;;;;;;60.38;57.33;;;;;;;;;;5072469;28;20047;-66
2023/08/15 04:25:46;;;;;;;58.58;55.42;;;;;;;;;;5073053;28;20037;-65
2023/08/15 04:28:11;;;;;;;52.50;49.83;;;;;;;;;;5071058;28;20082;-65
2023/08/15 04:30:37;;;;;;;64.93;61.38;;;;;;;;;;5074564;28;20466;-65
2023/08/15 04:33:02;;;;;;;90.15;85.60;;;;;;;;;;5076994;28;20061;-65
2023/08/15 04:35:28;;;;;;;112.78;106.03;;;;;;;;;;5076176;28;20048;-67
2023/08/15 04:37:54;;;;;;;124.22;117.72;;;;;;;;;;5072866;28;20040;-66
2023/08/15 04:40:45;;;;;;;132.88;125.32;;;;;;;;;;5072307;28;20113;-67
2023/08/15 04:43:11;;;;;;;117.75;111.88;;;;;;;;;;5072275;28;20059;-66
2023/08/15 04:45:40;;;;;;;95.20;90.43;;;;;;;;;;5071227;28;20032;-66
2023/08/15 04:48:07;;;;;;;82.90;78.72;;;;;;;;;;5080372;28;20024;-66
2023/08/15 04:50:32;;;;;;;87.40;82.85;;;;;;;;;;5080041;28;20043;-66
2023/08/15 04:52:57;;;;;;;55.88;52.38;;;;;;;;;;5079051;28;20357;-66
2023/08/15 04:55:23;;;;;;;46.67;43.97;;;;;;;;;;5077031;28;20093;-67
2023/08/15 04:57:48;;;;;;;51.13;48.33;;;;;;;;;;5080801;28;20024;-66
2023/08/15 05:00:15;;;;;;;51.40;48.75;;;;;;;;;;5080051;28;20069;-66
2023/08/15 05:02:41;;;;;;;68.60;65.13;;;;;;;;;;5076711;28;20102;-67
2023/08/15 05:05:09;;;;;;;65.57;62.15;;;;;;;;;;5080646;28;20929;-66
2023/08/15 05:07:35;;;;;;;65.03;61.40;;;;;;;;;;5078480;28;20044;-67
2023/08/15 05:10:00;;;;;;;65.95;62.45;;;;;;;;;;5078924;28;20044;-67
2023/08/15 05:12:26;;;;;;;68.72;63.50;;;;;;;;;;5079919;28;20898;-66
2023/08/15 05:14:51;;;;;;;68.25;64.78;;;;;;;;;;5079766;28;20154;-66
2023/08/15 05:17:16;;;;;;;71.25;67.50;;;;;;;;;;5079349;28;20120;-66
2023/08/15 05:19:42;;;;;;;61.95;58.83;;;;;;;;;;5078413;28;20043;-67
2023/08/15 05:22:07;;;;;;;64.90;61.60;;;;;;;;;;5076953;28;20137;-69
2023/08/15 05:24:32;;;;;;;61.30;57.97;;;;;;;;;;5079730;28;20040;-67
2023/08/15 05:26:58;;;;;;;69.80;65.93;;;;;;;;;;5075341;28;20545;-65
2023/08/15 05:29:23;;;;;;;66.25;62.85;;;;;;;;;;5078555;28;20426;-67
2023/08/15 05:31:49;;;;;;;63.25;60.03;;;;;;;;;;5080184;28;20050;-67
2023/08/15 05:34:14;;;;;;;64.32;61.08;;;;;;;;;;5077557;28;20362;-67
2023/08/15 05:36:39;;;;;;;62.92;59.72;;;;;;;;;;5078432;28;20036;-67
2023/08/15 05:39:05;;;;;;;57.53;54.47;;;;;;;;;;5076843;28;20735;-66
2023/08/15 05:41:31;;;;;;;54.50;51.72;;;;;;;;;;5079717;28;20111;-67
2023/08/15 05:43:56;;;;;;;52.92;50.17;;;;;;;;;;5076802;28;20038;-67
2023/08/15 05:46:21;;;;;;;51.42;48.35;;;;;;;;;;5078728;28;20114;-67
2023/08/15 05:48:47;;;;;;;48.88;46.30;;;;;;;;;;5077205;28;20045;-65
2023/08/15 05:51:12;;;;;;;46.47;44.05;;;;;;;;;;5078601;28;20040;-65
2023/08/15 05:53:37;;;;;;;56.38;53.42;;;;;;;;;;5073130;28;20098;-65
2023/08/15 05:56:03;;;;;;;48.00;45.53;;;;;;;;;;5077973;28;20104;-66
2023/08/15 05:58:28;;;;;;;53.70;50.45;;;;;;;;;;5076592;28;20101;-66
2023/08/15 06:00:54;;;;;;;54.65;51.75;;;;;;;;;;5074217;28;20024;-67
2023/08/15 06:03:20;;;;;;;51.80;49.10;;;;;;;;;;5077426;28;20287;-67
2023/08/15 06:05:45;;;;;;;56.45;53.25;;;;;;;;;;5078266;28;20507;-68
2023/08/15 06:08:11;;;;;;;58.80;55.85;;;;;;;;;;5077286;28;20079;-67
2023/08/15 06:10:37;;;;;;;60.22;57.10;;;;;;;;;;5074309;28;20047;-67
2023/08/15 06:13:02;;;;;;;57.22;54.30;;;;;;;;;;5072574;28;20063;-67
2023/08/15 06:15:28;;;;;;;57.08;54.15;;;;;;;;;;5075407;28;20158;-67
2023/08/15 06:17:53;;;;;;;48.13;45.42;;;;;;;;;;5078209;28;20040;-67
2023/08/15 06:20:19;;;;;;;56.65;53.80;;;;;;;;;;5073987;28;20024;-68
2023/08/15 06:22:44;;;;;;;54.40;51.42;;;;;;;;;;5074958;28;20040;-68
2023/08/15 06:25:10;;;;;;;49.38;46.83;;;;;;;;;;5076824;28;20101;-67
2023/08/15 06:27:35;;;;;;;49.25;46.70;;;;;;;;;;5073985;28;20032;-67
2023/08/15 06:30:01;;;;;;;50.97;47.97;;;;;;;;;;5076022;28;20979;-67
2023/08/15 06:32:28;;;;;;;50.30;47.60;;;;;;;;;;5077485;28;20032;-67
2023/08/15 06:34:53;;;;;;;48.65;46.15;;;;;;;;;;5074968;28;20067;-67
2023/08/15 06:37:18;;;;;;;50.78;48.13;;;;;;;;;;5077391;28;20075;-67
2023/08/15 06:39:44;;;;;;;52.03;49.35;;;;;;;;;;5074621;28;20438;-67
2023/08/15 06:42:10;;;;;;;47.60;45.05;;;;;;;;;;5073486;28;20089;-67
2023/08/15 06:44:36;;;;;;;43.38;41.10;;;;;;;;;;5076093;28;20094;-67
2023/08/15 06:47:01;;;;;;;45.80;43.40;;;;;;;;;;5076976;28;20040;-68
2023/08/15 06:49:27;;;;;;;50.25;47.65;;;;;;;;;;5075445;28;20067;-67
2023/08/15 06:51:52;;;;;;;54.63;51.53;;;;;;;;;;5072639;28;20063;-68
2023/08/15 06:54:18;;;;;;;106.50;100.47;;;;;;;;;;5075540;28;20080;-68
2023/08/15 06:56:43;;;;;;;75.28;70.88;;;;;;;;;;5074329;28;20051;-68
2023/08/15 06:59:08;;;;;;;88.22;83.80;;;;;;;;;;5074651;28;20035;-68
2023/08/15 07:01:34;;;;;;;104.28;99.07;;;;;;;;;;5076782;28;20028;-67
2023/08/15 07:03:59;;;;;;;118.40;112.32;;;;;;;;;;5075317;28;20036;-67
2023/08/15 07:06:25;;;;;;;111.22;105.50;;;;;;;;;;5075391;28;20135;-68
2023/08/15 07:08:50;;;;;;;114.80;109.13;;;;;;;;;;5073912;28;20036;-67
2023/08/15 07:11:16;;;;;;;111.95;106.43;;;;;;;;;;5076659;28;20032;-69
2023/08/15 07:13:41;;;;;;;119.25;113.32;;;;;;;;;;5070115;28;20102;-69
2023/08/15 07:16:06;;;;;;;113.13;107.50;;;;;;;;;;5078190;28;20502;-69
2023/08/15 07:18:32;;;;;;;118.55;112.68;;;;;;;;;;5078264;28;20043;-68
2023/08/15 07:20:58;;;;;;;93.40;88.70;;;;;;;;;;5070542;28;20028;-68
2023/08/15 07:23:24;;;;;;;53.63;50.92;;;;;;;;;;5074270;28;20044;-67
2023/08/15 07:25:50;;;;;;;77.10;73.28;;;;;;;;;;5073733;28;20028;-67
2023/08/15 07:28:15;;;;;;;83.70;79.55;;;;;;;;;;5075258;28;20028;-67
2023/08/15 07:30:45;;;;;;;75.00;71.30;;;;;;;;;;5074514;28;20094;-68
2023/08/15 07:33:11;;;;;;;44.03;41.60;;;;;;;;;;5075297;28;20037;-67
2023/08/15 07:35:36;;;;;;;43.92;41.63;;;;;;;;;;5075406;28;20469;-67
2023/08/15 07:38:01;;;;;;;46.33;43.95;;;;;;;;;;5074627;28;20055;-67
2023/08/15 07:40:27;;;;;;;43.67;41.45;;;;;;;;;;5079410;28;20501;-67
2023/08/15 07:42:54;;;;;;;41.55;39.40;;;;;;;;;;5073216;28;20036;-67
2023/08/15 07:45:20;;;;;;;50.15;47.55;;;;;;;;;;5074742;28;20115;-67
2023/08/15 07:47:48;;;;;;;53.67;50.83;;;;;;;;;;5075613;28;20111;-66
2023/08/15 07:50:18;;;;;;;60.22;57.13;;;;;;;;;;5074302;28;20488;-67
2023/08/15 07:52:44;;;;;;;55.33;52.47;;;;;;;;;;5069215;28;20167;-67
2023/08/15 07:55:10;;;;;;;64.35;61.15;;;;;;;;;;5073608;28;20139;-66
2023/08/15 07:57:35;;;;;;;71.05;67.50;;;;;;;;;;5072515;28;20119;-66
2023/08/15 08:00:01;;;;;;;63.38;60.20;;;;;;;;;;5069786;28;20115;-67
2023/08/15 08:02:26;;;;;;;61.50;58.38;;;;;;;;;;5072423;28;20028;-67
2023/08/15 08:04:53;;;;;;;43.15;40.92;;;;;;;;;;5075033;28;20070;-67
2023/08/15 08:07:18;;;;;;;35.00;33.17;;;;;;;;;;5074056;28;20595;-66
2023/08/15 08:09:43;;;;;;;60.38;57.33;;;;;;;;;;5074436;28;20028;-66
2023/08/15 08:12:09;;;;;;;59.78;56.80;;;;;;;;;;5071800;28;20044;-68
2023/08/15 08:14:34;;;;;;;64.78;61.58;;;;;;;;;;5074961;28;20199;-66
2023/08/15 08:17:00;;;;;;;49.58;47.08;;;;;;;;;;5074521;28;20040;-66
2023/08/15 08:19:25;;;;;;;39.78;37.67;;;;;;;;;;5074688;28;20107;-67
2023/08/15 08:21:51;;;;;;;79.70;75.72;;;;;;;;;;5077324;28;20076;-66
2023/08/15 08:24:16;;;;;;;47.03;44.63;;;;;;;;;;5082939;28;20043;-66
2023/08/15 08:26:42;;;;;;;68.05;64.47;;;;;;;;;;5079733;28;20032;-66
2023/08/15 08:29:08;;;;;;;71.10;67.55;;;;;;;;;;5076980;28;20197;-66
2023/08/15 08:31:33;;;;;;;51.17;48.45;;;;;;;;;;5077918;28;20525;-66
2023/08/15 08:33:58;;;;;;;69.65;66.20;;;;;;;;;;5079920;28;20035;-66
2023/08/15 08:36:24;;;;;;;50.15;47.60;;;;;;;;;;5079663;28;20063;-66
2023/08/15 08:38:49;;;;;;;86.70;82.43;;;;;;;;;;5079522;28;20296;-66
2023/08/15 08:41:15;;;;;;;70.05;66.55;;;;;;;;;;5080199;28;20447;-66
2023/08/15 08:43:40;;;;;;;77.00;73.13;;;;;;;;;;5080446;28;20097;-66
2023/08/15 08:46:08;;;;;;;94.93;90.22;;;;;;;;;;5075512;28;20051;-66
2023/08/15 08:48:34;;;;;;;72.72;69.03;;;;;;;;;;5075014;28;20389;-66
2023/08/15 08:50:59;;;;;;;62.63;59.47;;;;;;;;;;5075568;28;20032;-66
2023/08/15 08:53:25;;;;;;;70.07;66.55;;;;;;;;;;5075651;28;20032;-67
2023/08/15 08:55:50;;;;;;;92.05;87.50;;;;;;;;;;5077241;28;20147;-66
2023/08/15 08:58:16;;;;;;;64.25;61.05;;;;;;;;;;5075790;28;20578;-68
2023/08/15 09:00:43;;;;;;;89.90;85.22;;;;;;;;;;5077617;28;20028;-66
2023/08/15 09:03:09;;;;;;;83.57;79.47;;;;;;;;;;5075397;28;20119;-67
2023/08/15 09:05:35;;;;;;;87.05;82.75;;;;;;;;;;5060796;28;20036;-65
2023/08/15 09:08:02;;;;;;;93.85;89.22;;;;;;;;;;5078645;28;20640;-65
2023/08/15 09:10:28;;;;;;;82.50;78.43;;;;;;;;;;5077397;28;20044;-65
2023/08/15 09:12:58;;;;;;;93.68;89.05;;;;;;;;;;5075637;28;20465;-65
2023/08/15 09:15:23;;;;;;;;;;;;;;;;;;5078936;28;20461;-65
2023/08/15 09:17:49;;;;;;;66.22;62.90;;;;;;;;;;5074673;28;19985;-65
2023/08/15 09:20:16;;;;;;;67.93;64.53;;;;;;;;;;5078445;28;20028;-65
2023/08/15 09:22:45;;;;;;;67.85;64.35;;;;;;;;;;5084737;28;20024;-64
2023/08/15 09:25:15;;;;;;;61.80;58.72;;;;;;;;;;5074232;28;20107;-65
2023/08/15 09:27:41;;;;;;;63.97;60.75;;;;;;;;;;5075852;28;20033;-66
2023/08/15 09:30:14;;;;;;;56.85;53.97;;;;;;;;;;5077177;28;20116;-64
2023/08/15 09:32:41;;;;;;;88.13;83.80;;;;;;;;;;5075908;28;20028;-65
2023/08/15 09:35:12;;;;;;;93.55;88.95;;;;;;;;;;5074538;28;20028;-65
2023/08/15 09:37:45;;;;;;;67.10;63.75;;;;;;;;;;5078907;28;20071;-65
2023/08/15 09:40:14;;;;;;;63.20;60.03;;;;;;;;;;5077958;28;20425;-65
2023/08/15 09:42:40;;;;;;;62.22;59.05;;;;;;;;;;5074992;28;20059;-65
2023/08/15 09:45:07;;;;;;;64.82;61.50;;;;;;;;;;5076971;28;20078;-65
2023/08/15 09:47:35;;;;;;;63.05;59.63;;;;;;;;;;5075413;28;20040;-65
2023/08/15 09:50:01;;;;;;;67.65;64.22;;;;;;;;;;5076082;28;20040;-65
2023/08/15 09:52:28;;;;;;;65.05;61.78;;;;;;;;;;5077371;28;20040;-65
2023/08/15 09:54:54;;;;;;;61.50;58.40;;;;;;;;;;5078452;28;20032;-65
2023/08/15 09:57:20;;;;;;;61.03;57.92;;;;;;;;;;5077261;28;20054;-65
2023/08/15 09:59:45;;;;;;;61.53;58.45;;;;;;;;;;5075597;28;20118;-65
2023/08/15 10:02:21;;;;;;;60.58;57.50;;;;;;;;;;5077581;28;20070;-63
2023/08/15 10:04:53;;;;;;;76.32;72.53;;;;;;;;;;5074815;28;20041;-66
2023/08/15 10:07:21;;;;;;;59.42;56.45;;;;;;;;;;5079125;28;20102;-66
2023/08/15 10:09:48;;;;;;;67.60;64.20;;;;;;;;;;5077091;28;20134;-66
2023/08/15 10:12:13;;;;;;;71.60;68.00;;;;;;;;;;5075878;28;20040;-65
2023/08/15 10:14:39;;;;;;;66.70;63.35;;;;;;;;;;5076524;28;20028;-63
2023/08/15 10:17:05;;;;;;;66.95;63.58;;;;;;;;;;5079270;28;20101;-63
2023/08/15 10:19:32;;;;;;;79.60;75.63;;;;;;;;;;5076992;28;20029;-66
2023/08/15 10:21:58;;;;;;;70.85;67.30;;;;;;;;;;5075403;28;20335;-64
2023/08/15 10:24:23;;;;;;;78.72;74.72;;;;;;;;;;5074092;28;20043;-64
2023/08/15 10:26:51;;;;;;;79.75;75.78;;;;;;;;;;5076712;28;20038;-64
2023/08/15 10:29:16;;;;;;;76.57;72.68;;;;;;;;;;5075930;28;20151;-64
2023/08/15 10:31:42;;;;;;;72.85;69.20;;;;;;;;;;5073262;28;20060;-64
2023/08/15 10:34:10;;;;;;;72.68;69.05;;;;;;;;;;5074252;28;20044;-64
2023/08/15 10:36:36;;;;;;;71.63;68.05;;;;;;;;;;5075962;28;20032;-64
2023/08/15 10:39:05;;;;;;;75.43;71.68;;;;;;;;;;5073008;28;20380;-64
2023/08/15 10:41:32;;;;;;;73.18;69.30;;;;;;;;;;5077124;28;20032;-64
2023/08/15 10:44:02;;;;;;;79.63;75.70;;;;;;;;;;5075046;28;20039;-64
2023/08/15 10:46:30;;;;;;;73.97;70.30;;;;;;;;;;5075356;28;20059;-63
2023/08/15 10:48:59;;;;;;;74.65;70.70;;;;;;;;;;5075420;28;20048;-64
2023/08/15 10:51:30;;;;;;;159.30;151.48;;;;;;;;;;5077926;28;20489;-64
2023/08/15 10:54:00;;;;;;;155.75;147.98;;;;;;;;;;5071931;28;20472;-63
2023/08/15 10:56:28;;;;;;;154.07;146.27;;;;;;;;;;5072621;28;20029;-64
2023/08/15 10:58:54;;;;;;;121.22;115.13;;;;;;;;;;5072768;28;20036;-64
2023/08/15 11:01:21;;;;;;;92.55;87.78;;;;;;;;;;5077731;28;20031;-65
2023/08/15 11:03:49;;;;;;;80.38;76.32;;;;;;;;;;5073025;28;20035;-64
2023/08/15 11:06:14;;;;;;;83.10;78.88;;;;;;;;;;5073572;28;20089;-64
2023/08/15 11:08:51;;;;;;;85.45;81.05;;;;;;;;;;5076359;28;20028;-63
2023/08/15 11:11:17;;;;;;;101.78;96.53;;;;;;;;;;5077860;28;20402;-63
2023/08/15 11:13:46;;;;;;;51.67;49.00;;;;;;;;;;5078288;28;20051;-63
2023/08/15 11:16:14;;;;;;;110.18;104.53;;;;;;;;;;5075827;28;20105;-64
2023/08/15 11:18:41;;;;;;;102.00;96.72;;;;;;;;;;5077455;28;20032;-63
2023/08/15 11:21:09;;;;;;;131.18;124.45;;;;;;;;;;5074333;28;20456;-67
2023/08/15 11:23:35;;;;;;;90.60;85.85;;;;;;;;;;5077268;28;20036;-66
2023/08/15 11:26:16;;;;;;;148.35;140.90;;;;;;;;;;5074512;28;20029;-67
2023/08/15 11:28:41;;;;;;;150.15;142.55;;;;;;;;;;5074506;28;20540;-66
2023/08/15 11:31:09;;;;;;;107.38;101.97;;;;;;;;;;5074244;28;20037;-64
2023/08/15 11:33:34;;;;;;;142.95;135.75;;;;;;;;;;5076778;28;20040;-65
2023/08/15 11:36:06;;;;;;;91.32;86.68;;;;;;;;;;5074281;28;20531;-63
2023/08/15 11:38:32;;;;;;;141.68;134.52;;;;;;;;;;5073545;28;20397;-62
2023/08/15 11:41:01;;;;;;;130.90;124.20;;;;;;;;;;5074099;28;20024;-62
2023/08/15 11:43:27;;;;;;;128.38;121.90;;;;;;;;;;5075349;28;20032;-63
2023/08/15 11:45:52;;;;;;;104.07;98.20;;;;;;;;;;5075135;28;20117;-66
2023/08/15 11:48:18;;;;;;;71.95;68.30;;;;;;;;;;5077773;28;20563;-66
2023/08/15 11:50:44;;;;;;;57.22;54.33;;;;;;;;;;5076396;28;20438;-62
2023/08/15 11:53:14;;;;;;;38.72;36.72;;;;;;;;;;5074751;28;20036;-62
2023/08/15 11:55:40;;;;;;;43.35;41.10;;;;;;;;;;5074711;28;20033;-63
2023/08/15 11:58:23;;;;;;;34.60;32.78;;;;;;;;;;5075036;28;20039;-63
2023/08/15 12:00:50;;;;;;;43.80;41.55;;;;;;;;;;5076751;28;20032;-63
2023/08/15 12:03:16;;;;;;;42.45;40.22;;;;;;;;;;5076264;28;20377;-63
2023/08/15 12:05:45;;;;;;;56.03;53.10;;;;;;;;;;5074129;28;20039;-67
2023/08/15 12:08:13;;;;;;;52.60;49.75;;;;;;;;;;5077834;28;20024;-67
2023/08/15 12:10:38;;;;;;;33.38;31.67;;;;;;;;;;5074449;28;20487;-67
2023/08/15 12:13:05;;;;;;;34.65;32.65;;;;;;;;;;5075840;28;20105;-67
2023/08/15 12:15:30;;;;;;;27.88;26.40;;;;;;;;;;5077228;28;20061;-67
2023/08/15 12:17:55;;;;;;;38.80;36.80;;;;;;;;;;5075434;28;20024;-67
2023/08/15 12:20:21;;;;;;;36.65;34.70;;;;;;;;;;5071575;28;20110;-67
2023/08/15 12:22:46;;;;;;;47.78;45.33;;;;;;;;;;5072452;28;20096;-67
2023/08/15 12:25:12;;;;;;;72.40;68.70;;;;;;;;;;5074092;28;20042;-68
2023/08/15 12:27:37;;;;;;;81.72;77.65;;;;;;;;;;5076342;28;20059;-64
2023/08/15 12:30:07;;;;;;;89.18;84.63;;;;;;;;;;5076274;28;20509;-64
2023/08/15 12:32:33;;;;;;;74.07;70.38;;;;;;;;;;5073553;28;20028;-65
2023/08/15 12:34:58;;;;;;;93.50;88.82;;;;;;;;;;5073781;28;20074;-67
2023/08/15 12:37:24;;;;;;;98.25;93.38;;;;;;;;;;5074469;28;20036;-64
2023/08/15 12:39:50;;;;;;;100.05;95.10;;;;;;;;;;5073837;28;20055;-67
2023/08/15 12:42:15;;;;;;;83.47;79.32;;;;;;;;;;5075022;28;20031;-64
2023/08/15 12:44:42;;;;;;;94.68;89.95;;;;;;;;;;5073869;28;20118;-68
2023/08/15 12:47:10;;;;;;;89.13;84.63;;;;;;;;;;5076897;28;20044;-64
2023/08/15 12:49:36;;;;;;;56.45;53.63;;;;;;;;;;5074093;28;20032;-65
2023/08/15 12:52:03;;;;;;;46.65;44.22;;;;;;;;;;5073770;28;20111;-69
2023/08/15 12:54:28;;;;;;;72.78;69.13;;;;;;;;;;5073269;28;20066;-69
2023/08/15 12:56:54;;;;;;;48.80;44.85;;;;;;;;;;5073031;28;20033;-69
2023/08/15 12:59:19;;;;;;;49.92;47.15;;;;;;;;;;5075001;28;20036;-69
2023/08/15 13:01:44;;;;;;;37.00;35.10;;;;;;;;;;5075857;28;20092;-65
2023/08/15 13:04:12;;;;;;;54.63;51.80;;;;;;;;;;5073882;28;20032;-68
2023/08/15 13:06:38;;;;;;;64.45;61.22;;;;;;;;;;5075324;28;20680;-64
2023/08/15 13:09:04;;;;;;;72.28;68.65;;;;;;;;;;5075970;28;20086;-63
2023/08/15 13:11:29;;;;;;;68.07;64.65;;;;;;;;;;5080410;28;20044;-64
2023/08/15 13:13:54;;;;;;;46.03;43.63;;;;;;;;;;5077937;28;20370;-64
2023/08/15 13:16:20;;;;;;;38.75;36.70;;;;;;;;;;5078338;28;20035;-64
2023/08/15 13:18:45;;;;;;;35.95;34.10;;;;;;;;;;5079291;28;20043;-63
2023/08/15 13:21:11;;;;;;;36.05;34.20;;;;;;;;;;5076779;28;20039;-64
2023/08/15 13:23:36;;;;;;;32.83;31.13;;;;;;;;;;5077367;28;20040;-64
2023/08/15 13:26:01;;;;;;;42.25;39.90;;;;;;;;;;5077608;28;20036;-63
2023/08/15 13:28:27;;;;;;;39.90;37.78;;;;;;;;;;5078254;28;20024;-66
2023/08/15 13:30:52;;;;;;;46.60;44.20;;;;;;;;;;5076894;28;20036;-67
2023/08/15 13:33:18;;;;;;;62.80;59.63;;;;;;;;;;5076577;28;20043;-66
2023/08/15 13:35:43;;;;;;;70.97;67.38;;;;;;;;;;5081265;28;20078;-68
2023/08/15 13:38:09;;;;;;;83.43;79.20;;;;;;;;;;5077177;28;20063;-72
2023/08/15 13:40:34;;;;;;;92.88;88.18;;;;;;;;;;5077405;28;20044;-63
2023/08/15 13:42:59;;;;;;;88.53;84.00;;;;;;;;;;5075138;28;20071;-63
2023/08/15 13:45:25;;;;;;;92.13;87.43;;;;;;;;;;5076326;28;20074;-63
2023/08/15 13:47:51;;;;;;;103.78;98.47;;;;;;;;;;5079215;28;20031;-63
2023/08/15 13:50:17;;;;;;;112.78;106.85;;;;;;;;;;5076857;28;20366;-63
2023/08/15 13:52:42;;;;;;;96.18;91.25;;;;;;;;;;5074652;28;20027;-64
2023/08/15 13:55:08;;;;;;;111.15;105.43;;;;;;;;;;5080266;28;20162;-63
2023/08/15 13:57:33;;;;;;;75.88;72.07;;;;;;;;;;5079046;28;20040;-70
2023/08/15 13:59:59;;;;;;;50.63;48.03;;;;;;;;;;5079622;28;20036;-71
2023/08/15 14:02:24;;;;;;;43.97;41.67;;;;;;;;;;5077303;28;20039;-70
2023/08/15 14:04:49;;;;;;;42.40;40.20;;;;;;;;;;5078040;28;20608;-70
2023/08/15 14:07:15;;;;;;;41.92;39.72;;;;;;;;;;5078577;28;20048;-64
2023/08/15 14:09:40;;;;;;;43.90;41.65;;;;;;;;;;5073785;28;20028;-70